createdAt,value
2022-11-17T00:00:09.844Z,934.67
2022-11-17T00:00:19.843Z,934.66
2022-11-17T00:00:29.840Z,934.66
2022-11-17T00:00:39.845Z,934.65
2022-11-17T00:00:49.848Z,934.65
2022-11-17T00:00:59.847Z,934.65
2022-11-17T00:01:09.851Z,934.64
2022-11-17T00:01:19.857Z,934.64
2022-11-17T00:01:29.851Z,934.64
2022-11-17T00:01:39.850Z,934.63
2022-11-17T00:01:49.851Z,934.63
2022-11-17T00:01:59.889Z,934.63
2022-11-17T00:02:09.890Z,934.62
2022-11-17T00:02:19.934Z,934.62
2022-11-17T00:02:29.920Z,934.62
2022-11-17T00:02:39.926Z,934.62
2022-11-17T00:02:49.911Z,934.62
2022-11-17T00:02:59.854Z,934.62
2022-11-17T00:03:09.856Z,934.61
2022-11-17T00:03:19.855Z,934.61
2022-11-17T00:03:29.861Z,934.61
2022-11-17T00:03:39.856Z,934.61
2022-11-17T00:03:49.858Z,934.61
2022-11-17T00:03:59.858Z,934.60
2022-11-17T00:04:09.858Z,934.59
2022-11-17T00:04:19.846Z,934.59
2022-11-17T00:04:29.866Z,934.59
2022-11-17T00:04:39.861Z,934.58
2022-11-17T00:04:49.860Z,934.57
2022-11-17T00:04:59.862Z,934.57
2022-11-17T00:05:09.861Z,934.57
2022-11-17T00:05:19.878Z,934.57
2022-11-17T00:05:29.863Z,934.56
2022-11-17T00:05:39.864Z,934.56
2022-11-17T00:05:49.867Z,934.56
2022-11-17T00:05:59.869Z,934.55
2022-11-17T00:06:09.871Z,934.54
2022-11-17T00:06:19.924Z,934.54
2022-11-17T00:06:29.870Z,934.54
2022-11-17T00:06:39.871Z,934.53
2022-11-17T00:06:49.925Z,934.53
2022-11-17T00:06:59.906Z,934.53
2022-11-17T00:07:09.917Z,934.53
2022-11-17T00:07:19.933Z,934.53
2022-11-17T00:07:29.944Z,934.53
2022-11-17T00:07:39.873Z,934.53
2022-11-17T00:07:49.879Z,934.53
2022-11-17T00:07:59.874Z,934.52
2022-11-17T00:08:09.879Z,934.52
2022-11-17T00:08:19.876Z,934.53
2022-11-17T00:08:29.878Z,934.52
2022-11-17T00:08:39.878Z,934.52
2022-11-17T00:08:49.880Z,934.52
2022-11-17T00:08:59.885Z,934.53
2022-11-17T00:09:09.884Z,934.53
2022-11-17T00:09:19.883Z,934.53
2022-11-17T00:09:29.880Z,934.52
2022-11-17T00:09:39.882Z,934.52
2022-11-17T00:09:49.888Z,934.53
2022-11-17T00:09:59.885Z,934.52
2022-11-17T00:10:09.885Z,934.52
2022-11-17T00:10:19.886Z,934.51
2022-11-17T00:10:29.887Z,934.51
2022-11-17T00:10:39.890Z,934.52
2022-11-17T00:10:49.876Z,934.53
2022-11-17T00:10:59.889Z,934.54
2022-11-17T00:11:09.891Z,934.54
2022-11-17T00:11:19.890Z,934.55
2022-11-17T00:11:29.892Z,934.54
2022-11-17T00:11:39.889Z,934.54
2022-11-17T00:11:49.894Z,934.54
2022-11-17T00:11:59.892Z,934.54
2022-11-17T00:12:09.894Z,934.53
2022-11-17T00:12:22.692Z,934.52
2022-11-17T00:12:32.799Z,934.51
2022-11-17T00:12:39.897Z,934.51
2022-11-17T00:12:49.895Z,934.51
2022-11-17T00:12:59.897Z,934.50
2022-11-17T00:13:09.897Z,934.49
2022-11-17T00:13:19.901Z,934.48
2022-11-17T00:13:29.903Z,934.49
2022-11-17T00:13:39.905Z,934.49
2022-11-17T00:13:49.900Z,934.48
2022-11-17T00:13:59.904Z,934.47
2022-11-17T00:14:09.903Z,934.47
2022-11-17T00:14:19.906Z,934.46
2022-11-17T00:14:29.903Z,934.45
2022-11-17T00:14:39.906Z,934.45
2022-11-17T00:14:49.923Z,934.44
2022-11-17T00:14:59.906Z,934.45
2022-11-17T00:15:09.907Z,934.44
2022-11-17T00:15:19.908Z,934.44
2022-11-17T00:15:29.917Z,934.44
2022-11-17T00:15:39.921Z,934.44
2022-11-17T00:15:49.907Z,934.43
2022-11-17T00:15:59.912Z,934.43
2022-11-17T00:16:09.910Z,934.43
2022-11-17T00:16:19.914Z,934.43
2022-11-17T00:16:29.921Z,934.44
2022-11-17T00:16:39.912Z,934.44
2022-11-17T00:16:49.918Z,934.45
2022-11-17T00:16:59.900Z,934.45
2022-11-17T00:17:09.913Z,934.45
2022-11-17T00:17:19.915Z,934.46
2022-11-17T00:17:29.922Z,934.46
2022-11-17T00:17:39.918Z,934.47
2022-11-17T00:17:49.919Z,934.48
2022-11-17T00:17:59.918Z,934.48
2022-11-17T00:18:09.917Z,934.48
2022-11-17T00:18:19.919Z,934.49
2022-11-17T00:18:29.923Z,934.49
2022-11-17T00:18:39.925Z,934.48
2022-11-17T00:18:49.923Z,934.47
2022-11-17T00:18:59.935Z,934.47
2022-11-17T00:19:09.924Z,934.46
2022-11-17T00:19:19.923Z,934.46
2022-11-17T00:19:29.927Z,934.47
2022-11-17T00:19:39.926Z,934.46
2022-11-17T00:19:49.927Z,934.46
2022-11-17T00:19:59.929Z,934.46
2022-11-17T00:20:09.927Z,934.45
2022-11-17T00:20:19.933Z,934.45
2022-11-17T00:20:29.929Z,934.44
2022-11-17T00:20:39.931Z,934.44
2022-11-17T00:20:49.930Z,934.44
2022-11-17T00:20:59.931Z,934.43
2022-11-17T00:21:09.956Z,934.43
2022-11-17T00:21:19.965Z,934.42
2022-11-17T00:21:29.938Z,934.42
2022-11-17T00:21:39.932Z,934.41
2022-11-17T00:21:49.935Z,934.41
2022-11-17T00:21:59.939Z,934.41
2022-11-17T00:22:09.936Z,934.40
2022-11-17T00:22:19.938Z,934.40
2022-11-17T00:22:29.937Z,934.40
2022-11-17T00:22:39.940Z,934.39
2022-11-17T00:22:49.942Z,934.39
2022-11-17T00:22:59.943Z,934.39
2022-11-17T00:23:09.943Z,934.38
2022-11-17T00:23:19.951Z,934.38
2022-11-17T00:23:29.944Z,934.38
2022-11-17T00:23:39.946Z,934.37
2022-11-17T00:23:50.405Z,934.37
2022-11-17T00:23:59.946Z,934.36
2022-11-17T00:24:09.946Z,934.35
2022-11-17T00:24:19.947Z,934.35
2022-11-17T00:24:29.948Z,934.35
2022-11-17T00:24:39.949Z,934.35
2022-11-17T00:24:49.947Z,934.35
2022-11-17T00:24:59.950Z,934.34
2022-11-17T00:25:09.947Z,934.33
2022-11-17T00:25:19.950Z,934.33
2022-11-17T00:25:29.973Z,934.33
2022-11-17T00:25:39.950Z,934.33
2022-11-17T00:25:49.955Z,934.33
2022-11-17T00:25:59.949Z,934.33
2022-11-17T00:26:09.951Z,934.33
2022-11-17T00:26:19.953Z,934.34
2022-11-17T00:26:29.952Z,934.34
2022-11-17T00:26:39.954Z,934.35
2022-11-17T00:26:49.955Z,934.35
2022-11-17T00:26:59.958Z,934.36
2022-11-17T00:27:09.958Z,934.37
2022-11-17T00:27:19.955Z,934.37
2022-11-17T00:27:29.966Z,934.37
2022-11-17T00:27:39.957Z,934.37
2022-11-17T00:27:49.960Z,934.38
2022-11-17T00:27:59.967Z,934.39
2022-11-17T00:28:09.966Z,934.39
2022-11-17T00:28:19.961Z,934.39
2022-11-17T00:28:29.963Z,934.40
2022-11-17T00:28:39.967Z,934.40
2022-11-17T00:28:49.962Z,934.40
2022-11-17T00:28:59.976Z,934.40
2022-11-17T00:29:09.967Z,934.40
2022-11-17T00:29:19.965Z,934.39
2022-11-17T00:29:29.974Z,934.39
2022-11-17T00:29:39.968Z,934.39
2022-11-17T00:29:49.966Z,934.39
2022-11-17T00:29:59.976Z,934.38
2022-11-17T00:30:09.970Z,934.38
2022-11-17T00:30:19.956Z,934.38
2022-11-17T00:30:30.015Z,934.38
2022-11-17T00:30:43.741Z,934.37
2022-11-17T00:30:49.973Z,934.37
2022-11-17T00:30:59.966Z,934.37
2022-11-17T00:31:09.973Z,934.36
2022-11-17T00:31:19.979Z,934.35
2022-11-17T00:31:29.973Z,934.34
2022-11-17T00:31:39.978Z,934.33
2022-11-17T00:31:49.975Z,934.33
2022-11-17T00:31:59.976Z,934.31
2022-11-17T00:32:09.980Z,934.31
2022-11-17T00:32:19.979Z,934.30
2022-11-17T00:32:29.982Z,934.29
2022-11-17T00:32:39.983Z,934.28
2022-11-17T00:32:49.984Z,934.28
2022-11-17T00:32:59.984Z,934.27
2022-11-17T00:33:09.987Z,934.26
2022-11-17T00:33:19.984Z,934.25
2022-11-17T00:33:29.983Z,934.25
2022-11-17T00:33:39.989Z,934.24
2022-11-17T00:33:49.989Z,934.23
2022-11-17T00:33:59.999Z,934.22
2022-11-17T00:34:09.987Z,934.22
2022-11-17T00:34:19.987Z,934.21
2022-11-17T00:34:29.988Z,934.19
2022-11-17T00:34:39.994Z,934.19
2022-11-17T00:34:49.990Z,934.19
2022-11-17T00:34:59.992Z,934.19
2022-11-17T00:35:10.010Z,934.18
2022-11-17T00:35:19.992Z,934.18
2022-11-17T00:35:29.995Z,934.18
2022-11-17T00:35:39.996Z,934.18
2022-11-17T00:35:49.996Z,934.17
2022-11-17T00:35:59.997Z,934.17
2022-11-17T00:36:09.999Z,934.16
2022-11-17T00:36:19.997Z,934.16
2022-11-17T00:36:29.996Z,934.16
2022-11-17T00:36:40.035Z,934.16
2022-11-17T00:36:50.007Z,934.16
2022-11-17T00:37:00.005Z,934.16
2022-11-17T00:37:10.000Z,934.16
2022-11-17T00:37:20.000Z,934.16
2022-11-17T00:37:30.004Z,934.16
2022-11-17T00:37:40.005Z,934.16
2022-11-17T00:37:50.005Z,934.15
2022-11-17T00:38:00.003Z,934.16
2022-11-17T00:38:10.006Z,934.15
2022-11-17T00:38:20.004Z,934.15
2022-11-17T00:38:30.003Z,934.14
2022-11-17T00:38:40.006Z,934.14
2022-11-17T00:38:50.012Z,934.13
2022-11-17T00:39:00.019Z,934.14
2022-11-17T00:39:10.009Z,934.14
2022-11-17T00:39:20.006Z,934.13
2022-11-17T00:39:30.010Z,934.13
2022-11-17T00:39:40.006Z,934.13
2022-11-17T00:39:50.019Z,934.13
2022-11-17T00:40:01.168Z,934.13
2022-11-17T00:40:10.009Z,934.13
2022-11-17T00:40:20.008Z,934.13
2022-11-17T00:40:30.012Z,934.13
2022-11-17T00:40:40.013Z,934.13
2022-11-17T00:40:50.011Z,934.13
2022-11-17T00:41:00.011Z,934.12
2022-11-17T00:41:10.013Z,934.12
2022-11-17T00:41:20.015Z,934.12
2022-11-17T00:41:30.017Z,934.11
2022-11-17T00:41:40.019Z,934.11
2022-11-17T00:41:50.033Z,934.10
2022-11-17T00:41:59.999Z,934.10
2022-11-17T00:42:10.021Z,934.09
2022-11-17T00:42:20.021Z,934.09
2022-11-17T00:42:30.017Z,934.08
2022-11-17T00:42:40.030Z,934.08
2022-11-17T00:42:50.027Z,934.08
2022-11-17T00:43:00.033Z,934.07
2022-11-17T00:43:10.020Z,934.07
2022-11-17T00:43:20.034Z,934.07
2022-11-17T00:43:30.021Z,934.07
2022-11-17T00:43:40.021Z,934.07
2022-11-17T00:43:50.036Z,934.07
2022-11-17T00:44:00.062Z,934.06
2022-11-17T00:44:10.530Z,934.05
2022-11-17T00:44:20.029Z,934.04
2022-11-17T00:44:30.028Z,934.04
2022-11-17T00:44:40.027Z,934.04
2022-11-17T00:44:50.045Z,934.04
2022-11-17T00:45:00.034Z,934.03
2022-11-17T00:45:10.032Z,934.04
2022-11-17T00:45:20.046Z,934.04
2022-11-17T00:45:30.039Z,934.04
2022-11-17T00:45:40.030Z,934.03
2022-11-17T00:45:50.035Z,934.03
2022-11-17T00:46:00.037Z,934.03
2022-11-17T00:46:10.034Z,934.04
2022-11-17T00:46:20.043Z,934.03
2022-11-17T00:46:30.046Z,934.03
2022-11-17T00:46:40.040Z,934.04
2022-11-17T00:46:50.049Z,934.04
2022-11-17T00:47:00.037Z,934.04
2022-11-17T00:47:10.041Z,934.05
2022-11-17T00:47:20.041Z,934.05
2022-11-17T00:47:30.044Z,934.05
2022-11-17T00:47:40.041Z,934.05
2022-11-17T00:47:50.046Z,934.05
2022-11-17T00:48:00.048Z,934.05
2022-11-17T00:48:10.047Z,934.04
2022-11-17T00:48:20.045Z,934.05
2022-11-17T00:48:30.040Z,934.04
2022-11-17T00:48:40.044Z,934.04
2022-11-17T00:48:50.046Z,934.04
2022-11-17T00:49:00.067Z,934.03
2022-11-17T00:49:10.047Z,934.03
2022-11-17T00:49:20.050Z,934.03
2022-11-17T00:49:30.036Z,934.03
2022-11-17T00:49:40.045Z,934.03
2022-11-17T00:49:50.053Z,934.03
2022-11-17T00:50:00.073Z,934.03
2022-11-17T00:50:10.053Z,934.03
2022-11-17T00:50:20.052Z,934.02
2022-11-17T00:50:30.050Z,934.03
2022-11-17T00:50:40.048Z,934.02
2022-11-17T00:50:50.055Z,934.02
2022-11-17T00:51:00.054Z,934.01
2022-11-17T00:51:10.066Z,934.01
2022-11-17T00:51:20.054Z,934.01
2022-11-17T00:51:30.059Z,934.00
2022-11-17T00:51:40.058Z,934.00
2022-11-17T00:51:50.057Z,933.99
2022-11-17T00:52:00.058Z,933.99
2022-11-17T00:52:10.059Z,933.99
2022-11-17T00:52:20.058Z,933.98
2022-11-17T00:52:30.061Z,933.98
2022-11-17T00:52:40.064Z,933.98
2022-11-17T00:52:50.064Z,933.97
2022-11-17T00:53:00.065Z,933.97
2022-11-17T00:53:10.063Z,933.96
2022-11-17T00:53:20.061Z,933.95
2022-11-17T00:53:30.063Z,933.95
2022-11-17T00:53:40.065Z,933.94
2022-11-17T00:53:50.072Z,933.94
2022-11-17T00:54:00.116Z,933.93
2022-11-17T00:54:10.071Z,933.93
2022-11-17T00:54:20.069Z,933.93
2022-11-17T00:54:30.069Z,933.93
2022-11-17T00:54:40.072Z,933.93
2022-11-17T00:54:50.075Z,933.92
2022-11-17T00:55:00.113Z,933.92
2022-11-17T00:55:10.104Z,933.92
2022-11-17T00:55:20.124Z,933.91
2022-11-17T00:55:30.175Z,933.91
2022-11-17T00:55:40.121Z,933.90
2022-11-17T00:55:50.220Z,933.91
2022-11-17T00:56:00.075Z,933.91
2022-11-17T00:56:10.106Z,933.92
2022-11-17T00:56:20.078Z,933.92
2022-11-17T00:56:30.077Z,933.93
2022-11-17T00:56:40.084Z,933.93
2022-11-17T00:56:50.080Z,933.92
2022-11-17T00:57:00.088Z,933.92
2022-11-17T00:57:10.069Z,933.92
2022-11-17T00:57:20.085Z,933.92
2022-11-17T00:57:30.086Z,933.93
2022-11-17T00:57:40.092Z,933.93
2022-11-17T00:57:50.086Z,933.93
2022-11-17T00:58:00.101Z,933.93
2022-11-17T00:58:10.091Z,933.93
2022-11-17T00:58:20.088Z,933.93
2022-11-17T00:58:30.090Z,933.91
2022-11-17T00:58:40.091Z,933.91
2022-11-17T00:58:50.092Z,933.91
2022-11-17T00:59:00.097Z,933.91
2022-11-17T00:59:10.096Z,933.91
2022-11-17T00:59:20.092Z,933.91
2022-11-17T00:59:30.094Z,933.91
2022-11-17T00:59:40.103Z,933.90
2022-11-17T00:59:50.093Z,933.89
2022-11-17T01:00:00.125Z,933.88
2022-11-17T01:00:10.103Z,933.88
2022-11-17T01:00:20.098Z,933.88
2022-11-17T01:00:30.097Z,933.88
2022-11-17T01:00:40.103Z,933.88
2022-11-17T01:00:50.124Z,933.88
2022-11-17T01:01:00.099Z,933.88
2022-11-17T01:01:10.144Z,933.88
2022-11-17T01:01:20.213Z,933.88
2022-11-17T01:01:30.228Z,933.88
2022-11-17T01:01:40.182Z,933.88
2022-11-17T01:01:50.193Z,933.88
2022-11-17T01:02:00.230Z,933.88
2022-11-17T01:02:10.090Z,933.88
2022-11-17T01:02:20.104Z,933.88
2022-11-17T01:02:30.106Z,933.88
2022-11-17T01:02:40.103Z,933.88
2022-11-17T01:02:50.103Z,933.88
2022-11-17T01:03:00.112Z,933.88
2022-11-17T01:03:10.106Z,933.88
2022-11-17T01:03:20.109Z,933.88
2022-11-17T01:03:30.109Z,933.88
2022-11-17T01:03:40.110Z,933.88
2022-11-17T01:03:50.113Z,933.88
2022-11-17T01:04:00.111Z,933.89
2022-11-17T01:04:10.114Z,933.89
2022-11-17T01:04:20.115Z,933.89
2022-11-17T01:04:30.116Z,933.89
2022-11-17T01:04:40.112Z,933.89
2022-11-17T01:04:50.114Z,933.89
2022-11-17T01:05:00.125Z,933.89
2022-11-17T01:05:10.114Z,933.89
2022-11-17T01:05:20.119Z,933.88
2022-11-17T01:05:33.065Z,933.88
2022-11-17T01:05:40.118Z,933.87
2022-11-17T01:05:50.120Z,933.87
2022-11-17T01:06:00.116Z,933.87
2022-11-17T01:06:10.120Z,933.86
2022-11-17T01:06:20.152Z,933.86
2022-11-17T01:06:30.120Z,933.85
2022-11-17T01:06:40.121Z,933.86
2022-11-17T01:06:50.199Z,933.85
2022-11-17T01:07:00.215Z,933.85
2022-11-17T01:07:10.144Z,933.85
2022-11-17T01:07:20.169Z,933.85
2022-11-17T01:07:30.218Z,933.84
2022-11-17T01:07:40.170Z,933.84
2022-11-17T01:07:50.131Z,933.84
2022-11-17T01:08:00.126Z,933.84
2022-11-17T01:08:10.128Z,933.83
2022-11-17T01:08:20.126Z,933.83
2022-11-17T01:08:30.127Z,933.82
2022-11-17T01:08:40.127Z,933.81
2022-11-17T01:08:50.136Z,933.81
2022-11-17T01:09:00.129Z,933.81
2022-11-17T01:09:10.133Z,933.81
2022-11-17T01:09:20.131Z,933.81
2022-11-17T01:09:30.130Z,933.80
2022-11-17T01:09:40.130Z,933.80
2022-11-17T01:09:50.133Z,933.79
2022-11-17T01:10:00.155Z,933.79
2022-11-17T01:10:10.133Z,933.78
2022-11-17T01:10:20.135Z,933.77
2022-11-17T01:10:30.134Z,933.77
2022-11-17T01:10:40.141Z,933.76
2022-11-17T01:10:50.136Z,933.76
2022-11-17T01:11:00.140Z,933.77
2022-11-17T01:11:10.138Z,933.77
2022-11-17T01:11:20.135Z,933.77
2022-11-17T01:11:30.145Z,933.77
2022-11-17T01:11:40.140Z,933.76
2022-11-17T01:11:50.142Z,933.76
2022-11-17T01:12:00.143Z,933.76
2022-11-17T01:12:10.146Z,933.75
2022-11-17T01:12:20.144Z,933.74
2022-11-17T01:12:30.151Z,933.73
2022-11-17T01:12:40.150Z,933.74
2022-11-17T01:12:50.145Z,933.73
2022-11-17T01:13:00.149Z,933.73
2022-11-17T01:13:10.145Z,933.72
2022-11-17T01:13:20.149Z,933.71
2022-11-17T01:13:30.151Z,933.71
2022-11-17T01:13:40.164Z,933.71
2022-11-17T01:13:50.157Z,933.71
2022-11-17T01:14:00.153Z,933.71
2022-11-17T01:14:10.151Z,933.71
2022-11-17T01:14:20.153Z,933.71
2022-11-17T01:14:30.157Z,933.71
2022-11-17T01:14:40.145Z,933.71
2022-11-17T01:14:50.143Z,933.71
2022-11-17T01:15:00.163Z,933.71
2022-11-17T01:15:10.161Z,933.70
2022-11-17T01:15:20.154Z,933.70
2022-11-17T01:15:30.157Z,933.69
2022-11-17T01:15:40.158Z,933.68
2022-11-17T01:15:50.157Z,933.68
2022-11-17T01:16:00.159Z,933.69
2022-11-17T01:16:11.039Z,933.68
2022-11-17T01:16:20.162Z,933.69
2022-11-17T01:16:30.159Z,933.70
2022-11-17T01:16:40.162Z,933.69
2022-11-17T01:16:50.159Z,933.68
2022-11-17T01:17:00.163Z,933.67
2022-11-17T01:17:10.159Z,933.67
2022-11-17T01:17:20.189Z,933.66
2022-11-17T01:17:30.164Z,933.67
2022-11-17T01:17:40.166Z,933.67
2022-11-17T01:17:50.165Z,933.68
2022-11-17T01:18:00.163Z,933.68
2022-11-17T01:18:10.164Z,933.68
2022-11-17T01:18:20.166Z,933.69
2022-11-17T01:18:30.167Z,933.69
2022-11-17T01:18:40.168Z,933.70
2022-11-17T01:18:50.168Z,933.70
2022-11-17T01:19:00.168Z,933.70
2022-11-17T01:19:10.232Z,933.70
2022-11-17T01:19:20.170Z,933.71
2022-11-17T01:19:30.170Z,933.71
2022-11-17T01:19:40.158Z,933.71
2022-11-17T01:19:50.177Z,933.71
2022-11-17T01:20:00.183Z,933.71
2022-11-17T01:20:10.174Z,933.71
2022-11-17T01:20:20.172Z,933.71
2022-11-17T01:20:30.174Z,933.71
2022-11-17T01:20:40.175Z,933.70
2022-11-17T01:20:50.178Z,933.70
2022-11-17T01:21:00.177Z,933.71
2022-11-17T01:21:10.178Z,933.70
2022-11-17T01:21:20.179Z,933.69
2022-11-17T01:21:30.179Z,933.68
2022-11-17T01:21:40.180Z,933.67
2022-11-17T01:21:50.183Z,933.67
2022-11-17T01:22:00.183Z,933.68
2022-11-17T01:22:10.182Z,933.67
2022-11-17T01:22:20.184Z,933.67
2022-11-17T01:22:30.186Z,933.66
2022-11-17T01:22:40.189Z,933.67
2022-11-17T01:22:50.188Z,933.66
2022-11-17T01:23:00.184Z,933.65
2022-11-17T01:23:10.191Z,933.65
2022-11-17T01:23:20.186Z,933.65
2022-11-17T01:23:30.188Z,933.65
2022-11-17T01:23:40.189Z,933.65
2022-11-17T01:23:50.185Z,933.65
2022-11-17T01:24:00.191Z,933.66
2022-11-17T01:24:10.197Z,933.66
2022-11-17T01:24:20.189Z,933.64
2022-11-17T01:24:30.191Z,933.64
2022-11-17T01:24:40.192Z,933.64
2022-11-17T01:24:50.192Z,933.65
2022-11-17T01:25:00.291Z,933.65
2022-11-17T01:25:10.201Z,933.65
2022-11-17T01:25:20.197Z,933.65
2022-11-17T01:25:30.196Z,933.65
2022-11-17T01:25:40.198Z,933.64
2022-11-17T01:25:50.199Z,933.63
2022-11-17T01:26:00.198Z,933.62
2022-11-17T01:26:10.200Z,933.62
2022-11-17T01:26:20.202Z,933.63
2022-11-17T01:26:30.202Z,933.64
2022-11-17T01:26:40.202Z,933.64
2022-11-17T01:26:50.204Z,933.62
2022-11-17T01:27:00.204Z,933.61
2022-11-17T01:27:10.204Z,933.62
2022-11-17T01:27:20.206Z,933.62
2022-11-17T01:27:30.208Z,933.62
2022-11-17T01:27:40.205Z,933.61
2022-11-17T01:27:50.212Z,933.61
2022-11-17T01:28:00.212Z,933.60
2022-11-17T01:28:10.209Z,933.59
2022-11-17T01:28:20.237Z,933.59
2022-11-17T01:28:30.211Z,933.60
2022-11-17T01:28:40.212Z,933.59
2022-11-17T01:28:50.211Z,933.59
2022-11-17T01:29:00.213Z,933.58
2022-11-17T01:29:10.217Z,933.57
2022-11-17T01:29:20.217Z,933.57
2022-11-17T01:29:30.216Z,933.57
2022-11-17T01:29:40.215Z,933.57
2022-11-17T01:29:50.214Z,933.56
2022-11-17T01:30:00.217Z,933.55
2022-11-17T01:30:10.216Z,933.55
2022-11-17T01:30:20.219Z,933.55
2022-11-17T01:30:30.222Z,933.55
2022-11-17T01:30:40.221Z,933.55
2022-11-17T01:30:50.224Z,933.54
2022-11-17T01:31:00.225Z,933.54
2022-11-17T01:31:10.226Z,933.54
2022-11-17T01:31:20.228Z,933.54
2022-11-17T01:31:30.238Z,933.53
2022-11-17T01:31:40.223Z,933.52
2022-11-17T01:31:50.223Z,933.51
2022-11-17T01:32:00.278Z,933.51
2022-11-17T01:32:10.227Z,933.51
2022-11-17T01:32:20.224Z,933.51
2022-11-17T01:32:30.227Z,933.51
2022-11-17T01:32:40.229Z,933.50
2022-11-17T01:32:50.230Z,933.50
2022-11-17T01:33:00.229Z,933.49
2022-11-17T01:33:10.227Z,933.50
2022-11-17T01:33:20.231Z,933.49
2022-11-17T01:33:30.238Z,933.49
2022-11-17T01:33:40.231Z,933.49
2022-11-17T01:33:50.233Z,933.49
2022-11-17T01:34:00.233Z,933.49
2022-11-17T01:34:10.233Z,933.48
2022-11-17T01:34:20.233Z,933.48
2022-11-17T01:34:30.236Z,933.47
2022-11-17T01:34:40.234Z,933.49
2022-11-17T01:34:50.235Z,933.48
2022-11-17T01:35:00.272Z,933.47
2022-11-17T01:35:10.263Z,933.46
2022-11-17T01:35:20.242Z,933.46
2022-11-17T01:35:30.237Z,933.46
2022-11-17T01:35:40.244Z,933.46
2022-11-17T01:35:50.238Z,933.48
2022-11-17T01:36:00.237Z,933.47
2022-11-17T01:36:10.240Z,933.45
2022-11-17T01:36:20.243Z,933.44
2022-11-17T01:36:30.240Z,933.44
2022-11-17T01:36:40.241Z,933.44
2022-11-17T01:36:50.242Z,933.44
2022-11-17T01:37:00.243Z,933.44
2022-11-17T01:37:10.244Z,933.43
2022-11-17T01:37:20.244Z,933.44
2022-11-17T01:37:30.246Z,933.43
2022-11-17T01:37:40.246Z,933.42
2022-11-17T01:37:50.246Z,933.42
2022-11-17T01:38:00.247Z,933.42
2022-11-17T01:38:10.259Z,933.43
2022-11-17T01:38:20.250Z,933.42
2022-11-17T01:38:30.248Z,933.41
2022-11-17T01:38:40.250Z,933.41
2022-11-17T01:38:50.249Z,933.41
2022-11-17T01:39:00.253Z,933.41
2022-11-17T01:39:10.254Z,933.41
2022-11-17T01:39:20.248Z,933.40
2022-11-17T01:39:30.262Z,933.40
2022-11-17T01:39:40.250Z,933.40
2022-11-17T01:39:50.252Z,933.40
2022-11-17T01:40:00.252Z,933.40
2022-11-17T01:40:10.347Z,933.39
2022-11-17T01:40:20.254Z,933.38
2022-11-17T01:40:30.260Z,933.37
2022-11-17T01:40:40.261Z,933.37
2022-11-17T01:40:50.257Z,933.36
2022-11-17T01:41:00.260Z,933.36
2022-11-17T01:41:10.262Z,933.37
2022-11-17T01:41:20.260Z,933.37
2022-11-17T01:41:30.259Z,933.36
2022-11-17T01:41:40.261Z,933.35
2022-11-17T01:41:50.265Z,933.34
2022-11-17T01:42:00.263Z,933.33
2022-11-17T01:42:10.261Z,933.32
2022-11-17T01:42:20.262Z,933.33
2022-11-17T01:42:30.264Z,933.33
2022-11-17T01:42:40.259Z,933.32
2022-11-17T01:42:50.265Z,933.32
2022-11-17T01:43:00.268Z,933.34
2022-11-17T01:43:10.264Z,933.33
2022-11-17T01:43:20.266Z,933.31
2022-11-17T01:43:30.278Z,933.30
2022-11-17T01:43:40.265Z,933.29
2022-11-17T01:43:50.269Z,933.28
2022-11-17T01:44:00.268Z,933.29
2022-11-17T01:44:10.279Z,933.30
2022-11-17T01:44:20.270Z,933.30
2022-11-17T01:44:30.270Z,933.29
2022-11-17T01:44:40.273Z,933.29
2022-11-17T01:44:50.269Z,933.29
2022-11-17T01:45:00.275Z,933.29
2022-11-17T01:45:10.272Z,933.28
2022-11-17T01:45:20.272Z,933.28
2022-11-17T01:45:30.275Z,933.27
2022-11-17T01:45:40.274Z,933.27
2022-11-17T01:45:50.275Z,933.26
2022-11-17T01:46:00.279Z,933.26
2022-11-17T01:46:10.275Z,933.27
2022-11-17T01:46:20.277Z,933.26
2022-11-17T01:46:30.280Z,933.25
2022-11-17T01:46:40.278Z,933.24
2022-11-17T01:46:50.278Z,933.24
2022-11-17T01:47:01.209Z,933.24
2022-11-17T01:47:10.282Z,933.25
2022-11-17T01:47:20.284Z,933.26
2022-11-17T01:47:30.281Z,933.22
2022-11-17T01:47:40.289Z,933.23
2022-11-17T01:47:50.286Z,933.23
2022-11-17T01:48:00.284Z,933.22
2022-11-17T01:48:10.286Z,933.20
2022-11-17T01:48:20.270Z,933.20
2022-11-17T01:48:30.288Z,933.19
2022-11-17T01:48:40.290Z,933.19
2022-11-17T01:48:50.288Z,933.20
2022-11-17T01:49:00.293Z,933.20
2022-11-17T01:49:10.290Z,933.18
2022-11-17T01:49:20.292Z,933.19
2022-11-17T01:49:30.292Z,933.18
2022-11-17T01:49:40.289Z,933.18
2022-11-17T01:49:50.290Z,933.18
2022-11-17T01:50:00.293Z,933.18
2022-11-17T01:50:10.280Z,933.18
2022-11-17T01:50:20.293Z,933.19
2022-11-17T01:50:30.294Z,933.20
2022-11-17T01:50:40.293Z,933.20
2022-11-17T01:50:50.298Z,933.18
2022-11-17T01:51:00.300Z,933.19
2022-11-17T01:51:10.299Z,933.18
2022-11-17T01:51:20.307Z,933.20
2022-11-17T01:51:30.285Z,933.20
2022-11-17T01:51:40.299Z,933.18
2022-11-17T01:51:50.298Z,933.18
2022-11-17T01:52:00.310Z,933.19
2022-11-17T01:52:10.301Z,933.18
2022-11-17T01:52:20.302Z,933.17
2022-11-17T01:52:30.304Z,933.16
2022-11-17T01:52:40.303Z,933.16
2022-11-17T01:52:50.304Z,933.15
2022-11-17T01:53:00.309Z,933.15
2022-11-17T01:53:10.301Z,933.15
2022-11-17T01:53:20.303Z,933.17
2022-11-17T01:53:30.306Z,933.19
2022-11-17T01:53:40.309Z,933.18
2022-11-17T01:53:50.311Z,933.16
2022-11-17T01:54:00.317Z,933.15
2022-11-17T01:54:10.315Z,933.15
2022-11-17T01:54:20.310Z,933.16
2022-11-17T01:54:30.310Z,933.16
2022-11-17T01:54:40.315Z,933.16
2022-11-17T01:54:50.313Z,933.17
2022-11-17T01:55:00.313Z,933.15
2022-11-17T01:55:10.314Z,933.16
2022-11-17T01:55:20.312Z,933.18
2022-11-17T01:55:30.323Z,933.18
2022-11-17T01:55:40.317Z,933.17
2022-11-17T01:55:50.328Z,933.16
2022-11-17T01:56:00.341Z,933.15
2022-11-17T01:56:10.315Z,933.16
2022-11-17T01:56:20.317Z,933.18
2022-11-17T01:56:30.317Z,933.17
2022-11-17T01:56:40.317Z,933.16
2022-11-17T01:56:50.318Z,933.15
2022-11-17T01:57:00.321Z,933.16
2022-11-17T01:57:10.321Z,933.15
2022-11-17T01:57:20.321Z,933.14
2022-11-17T01:57:30.321Z,933.14
2022-11-17T01:57:40.326Z,933.14
2022-11-17T01:57:50.328Z,933.13
2022-11-17T01:58:00.333Z,933.14
2022-11-17T01:58:10.325Z,933.15
2022-11-17T01:58:20.325Z,933.15
2022-11-17T01:58:30.331Z,933.14
2022-11-17T01:58:40.327Z,933.14
2022-11-17T01:58:50.326Z,933.13
2022-11-17T01:59:00.329Z,933.13
2022-11-17T01:59:10.330Z,933.13
2022-11-17T01:59:20.329Z,933.13
2022-11-17T01:59:30.330Z,933.12
2022-11-17T01:59:40.331Z,933.12
2022-11-17T01:59:50.330Z,933.11
2022-11-17T02:00:00.335Z,933.11
2022-11-17T02:00:10.337Z,933.11
2022-11-17T02:00:20.334Z,933.11
2022-11-17T02:00:30.336Z,933.10
2022-11-17T02:00:40.339Z,933.10
2022-11-17T02:00:50.341Z,933.09
2022-11-17T02:01:00.346Z,933.09
2022-11-17T02:01:10.407Z,933.09
2022-11-17T02:01:20.406Z,933.09
2022-11-17T02:01:30.413Z,933.09
2022-11-17T02:01:40.378Z,933.09
2022-11-17T02:01:50.463Z,933.08
2022-11-17T02:02:00.396Z,933.08
2022-11-17T02:02:10.344Z,933.07
2022-11-17T02:02:20.349Z,933.07
2022-11-17T02:02:30.346Z,933.07
2022-11-17T02:02:40.353Z,933.08
2022-11-17T02:02:50.348Z,933.07
2022-11-17T02:03:00.350Z,933.06
2022-11-17T02:03:10.351Z,933.05
2022-11-17T02:03:20.351Z,933.04
2022-11-17T02:03:30.355Z,933.03
2022-11-17T02:03:40.357Z,933.02
2022-11-17T02:03:50.352Z,933.02
2022-11-17T02:04:00.353Z,933.03
2022-11-17T02:04:10.359Z,933.03
2022-11-17T02:04:20.356Z,933.04
2022-11-17T02:04:30.356Z,933.03
2022-11-17T02:04:40.357Z,933.03
2022-11-17T02:04:50.361Z,933.02